sensor_id;sensor_type;location;lat;lon;timestamp;temperature;humidity
25871;DHT22;13689;48.590;7.752;2023-01-16T00:01:46;6.80;72.10
25871;DHT22;13689;48.590;7.752;2023-01-16T00:04:12;6.80;71.90
25871;DHT22;13689;48.590;7.752;2023-01-16T00:06:37;6.90;71.90
25871;DHT22;13689;48.590;7.752;2023-01-16T00:09:04;6.90;72.00
25871;DHT22;13689;48.590;7.752;2023-01-16T00:11:30;6.90;71.80
25871;DHT22;13689;48.590;7.752;2023-01-16T00:13:55;6.90;71.60
25871;DHT22;13689;48.590;7.752;2023-01-16T00:16:21;6.80;71.50
25871;DHT22;13689;48.590;7.752;2023-01-16T00:18:47;6.80;71.60
25871;DHT22;13689;48.590;7.752;2023-01-16T00:21:12;6.90;71.60
25871;DHT22;13689;48.590;7.752;2023-01-16T00:23:38;6.90;71.60
25871;DHT22;13689;48.590;7.752;2023-01-16T00:26:07;6.80;71.60
25871;DHT22;13689;48.590;7.752;2023-01-16T00:28:35;6.80;71.50
25871;DHT22;13689;48.590;7.752;2023-01-16T00:31:03;6.80;71.60
25871;DHT22;13689;48.590;7.752;2023-01-16T00:33:30;6.90;72.30
25871;DHT22;13689;48.590;7.752;2023-01-16T00:35:56;6.90;71.60
25871;DHT22;13689;48.590;7.752;2023-01-16T00:38:21;6.90;71.60
25871;DHT22;13689;48.590;7.752;2023-01-16T00:40:47;6.90;71.60
25871;DHT22;13689;48.590;7.752;2023-01-16T00:43:12;6.90;71.60
25871;DHT22;13689;48.590;7.752;2023-01-16T00:45:38;6.90;71.60
25871;DHT22;13689;48.590;7.752;2023-01-16T00:48:05;6.90;71.60
25871;DHT22;13689;48.590;7.752;2023-01-16T00:50:31;6.90;71.60
25871;DHT22;13689;48.590;7.752;2023-01-16T00:52:57;6.90;71.60
25871;DHT22;13689;48.590;7.752;2023-01-16T00:55:23;7.00;71.70
25871;DHT22;13689;48.590;7.752;2023-01-16T00:57:49;6.90;71.60
25871;DHT22;13689;48.590;7.752;2023-01-16T01:00:16;6.90;71.60
25871;DHT22;13689;48.590;7.752;2023-01-16T01:02:43;6.90;71.60
25871;DHT22;13689;48.590;7.752;2023-01-16T01:05:08;6.90;71.70
25871;DHT22;13689;48.590;7.752;2023-01-16T01:07:34;6.90;71.70
25871;DHT22;13689;48.590;7.752;2023-01-16T01:10:00;6.90;71.80
25871;DHT22;13689;48.590;7.752;2023-01-16T01:12:25;6.90;71.70
25871;DHT22;13689;48.590;7.752;2023-01-16T01:14:51;6.90;71.70
25871;DHT22;13689;48.590;7.752;2023-01-16T01:17:16;6.90;72.60
25871;DHT22;13689;48.590;7.752;2023-01-16T01:19:42;6.90;71.90
25871;DHT22;13689;48.590;7.752;2023-01-16T01:22:08;6.80;71.80
25871;DHT22;13689;48.590;7.752;2023-01-16T01:24:33;6.80;71.90
25871;DHT22;13689;48.590;7.752;2023-01-16T01:26:59;6.80;72.10
25871;DHT22;13689;48.590;7.752;2023-01-16T01:29:25;6.80;72.10
25871;DHT22;13689;48.590;7.752;2023-01-16T01:31:50;6.70;72.20
25871;DHT22;13689;48.590;7.752;2023-01-16T01:34:16;6.80;72.30
25871;DHT22;13689;48.590;7.752;2023-01-16T01:36:41;6.80;72.30
25871;DHT22;13689;48.590;7.752;2023-01-16T01:39:07;6.80;72.30
25871;DHT22;13689;48.590;7.752;2023-01-16T01:41:33;6.80;72.30
25871;DHT22;13689;48.590;7.752;2023-01-16T01:43:58;6.80;72.20
25871;DHT22;13689;48.590;7.752;2023-01-16T01:46:28;6.80;72.10
25871;DHT22;13689;48.590;7.752;2023-01-16T01:49:14;6.80;72.10
25871;DHT22;13689;48.590;7.752;2023-01-16T01:51:42;6.80;72.10
25871;DHT22;13689;48.590;7.752;2023-01-16T01:54:21;6.80;72.10
25871;DHT22;13689;48.590;7.752;2023-01-16T01:56:56;6.70;72.20
25871;DHT22;13689;48.590;7.752;2023-01-16T01:59:27;6.70;72.40
25871;DHT22;13689;48.590;7.752;2023-01-16T02:01:55;6.60;72.50
25871;DHT22;13689;48.590;7.752;2023-01-16T02:04:25;6.60;72.70
25871;DHT22;13689;48.590;7.752;2023-01-16T02:06:55;6.60;72.80
25871;DHT22;13689;48.590;7.752;2023-01-16T02:09:21;6.60;72.90
25871;DHT22;13689;48.590;7.752;2023-01-16T02:11:53;6.60;72.80
25871;DHT22;13689;48.590;7.752;2023-01-16T02:14:19;6.60;72.90
25871;DHT22;13689;48.590;7.752;2023-01-16T02:16:45;6.50;73.00
25871;DHT22;13689;48.590;7.752;2023-01-16T02:36:48;6.30;73.50
25871;DHT22;13689;48.590;7.752;2023-01-16T02:41:50;6.30;73.60
25871;DHT22;13689;48.590;7.752;2023-01-16T02:46:49;6.30;73.70
25871;DHT22;13689;48.590;7.752;2023-01-16T02:49:22;6.20;73.70
25871;DHT22;13689;48.590;7.752;2023-01-16T02:52:06;6.20;73.80
25871;DHT22;13689;48.590;7.752;2023-01-16T02:54:45;6.20;73.80
25871;DHT22;13689;48.590;7.752;2023-01-16T02:57:16;6.20;74.60
25871;DHT22;13689;48.590;7.752;2023-01-16T02:59:43;6.20;73.80
25871;DHT22;13689;48.590;7.752;2023-01-16T03:02:09;6.20;74.00
25871;DHT22;13689;48.590;7.752;2023-01-16T03:04:52;6.20;74.00
25871;DHT22;13689;48.590;7.752;2023-01-16T03:15:44;6.10;74.20
25871;DHT22;13689;48.590;7.752;2023-01-16T03:18:36;6.10;74.30
25871;DHT22;13689;48.590;7.752;2023-01-16T03:21:12;6.10;74.30
25871;DHT22;13689;48.590;7.752;2023-01-16T03:26:43;6.10;74.40
25871;DHT22;13689;48.590;7.752;2023-01-16T03:32:03;6.00;74.50
25871;DHT22;13689;48.590;7.752;2023-01-16T03:34:52;6.00;74.50
25871;DHT22;13689;48.590;7.752;2023-01-16T03:37:24;6.00;74.70
25871;DHT22;13689;48.590;7.752;2023-01-16T03:39:54;6.00;74.70
25871;DHT22;13689;48.590;7.752;2023-01-16T03:42:50;6.00;74.70
25871;DHT22;13689;48.590;7.752;2023-01-16T03:48:13;6.00;74.90
25871;DHT22;13689;48.590;7.752;2023-01-16T03:50:46;5.90;74.90
25871;DHT22;13689;48.590;7.752;2023-01-16T03:53:15;5.90;75.00
25871;DHT22;13689;48.590;7.752;2023-01-16T03:55:54;6.00;75.00
25871;DHT22;13689;48.590;7.752;2023-01-16T03:58:35;5.90;75.00
25871;DHT22;13689;48.590;7.752;2023-01-16T04:01:32;6.00;75.10
25871;DHT22;13689;48.590;7.752;2023-01-16T04:04:08;6.00;75.00
25871;DHT22;13689;48.590;7.752;2023-01-16T04:06:55;6.00;75.10
25871;DHT22;13689;48.590;7.752;2023-01-16T04:09:45;6.00;75.10
25871;DHT22;13689;48.590;7.752;2023-01-16T04:12:13;6.00;74.90
25871;DHT22;13689;48.590;7.752;2023-01-16T04:14:43;6.00;74.90
25871;DHT22;13689;48.590;7.752;2023-01-16T04:17:10;6.00;74.80
25871;DHT22;13689;48.590;7.752;2023-01-16T04:19:36;6.00;74.80
25871;DHT22;13689;48.590;7.752;2023-01-16T04:22:06;6.00;74.80
25871;DHT22;13689;48.590;7.752;2023-01-16T04:24:32;6.10;74.80
25871;DHT22;13689;48.590;7.752;2023-01-16T04:26:58;6.00;74.60
25871;DHT22;13689;48.590;7.752;2023-01-16T04:29:23;6.10;74.60
25871;DHT22;13689;48.590;7.752;2023-01-16T04:31:49;6.10;74.60
25871;DHT22;13689;48.590;7.752;2023-01-16T04:34:15;6.10;74.50
25871;DHT22;13689;48.590;7.752;2023-01-16T04:36:40;6.10;74.50
25871;DHT22;13689;48.590;7.752;2023-01-16T04:39:06;6.10;74.40
25871;DHT22;13689;48.590;7.752;2023-01-16T04:41:32;6.10;74.20
25871;DHT22;13689;48.590;7.752;2023-01-16T04:44:08;6.10;74.20
25871;DHT22;13689;48.590;7.752;2023-01-16T04:46:34;6.10;74.10
25871;DHT22;13689;48.590;7.752;2023-01-16T04:49:00;6.10;74.00
25871;DHT22;13689;48.590;7.752;2023-01-16T04:51:26;6.10;74.00
25871;DHT22;13689;48.590;7.752;2023-01-16T04:53:52;6.10;73.90
25871;DHT22;13689;48.590;7.752;2023-01-16T04:56:18;6.10;73.90
25871;DHT22;13689;48.590;7.752;2023-01-16T04:58:43;6.20;73.80
25871;DHT22;13689;48.590;7.752;2023-01-16T05:01:09;6.10;73.70
25871;DHT22;13689;48.590;7.752;2023-01-16T05:03:35;6.20;73.80
25871;DHT22;13689;48.590;7.752;2023-01-16T05:06:00;6.20;73.70
25871;DHT22;13689;48.590;7.752;2023-01-16T05:08:26;6.20;73.50
25871;DHT22;13689;48.590;7.752;2023-01-16T05:10:54;6.20;73.50
25871;DHT22;13689;48.590;7.752;2023-01-16T05:13:20;6.20;73.50
25871;DHT22;13689;48.590;7.752;2023-01-16T05:15:46;6.20;73.40
25871;DHT22;13689;48.590;7.752;2023-01-16T05:18:12;6.20;73.30
25871;DHT22;13689;48.590;7.752;2023-01-16T05:20:39;6.30;73.30
25871;DHT22;13689;48.590;7.752;2023-01-16T05:23:04;6.30;73.30
25871;DHT22;13689;48.590;7.752;2023-01-16T05:25:30;6.30;73.30
25871;DHT22;13689;48.590;7.752;2023-01-16T05:27:56;6.30;73.20
25871;DHT22;13689;48.590;7.752;2023-01-16T05:30:22;6.30;73.10
25871;DHT22;13689;48.590;7.752;2023-01-16T05:32:48;6.30;73.00
25871;DHT22;13689;48.590;7.752;2023-01-16T05:35:14;6.40;73.00
25871;DHT22;13689;48.590;7.752;2023-01-16T05:37:41;6.40;72.90
25871;DHT22;13689;48.590;7.752;2023-01-16T05:40:07;6.40;72.80
25871;DHT22;13689;48.590;7.752;2023-01-16T05:42:33;6.40;72.60
25871;DHT22;13689;48.590;7.752;2023-01-16T05:44:59;6.40;72.50
25871;DHT22;13689;48.590;7.752;2023-01-16T05:47:24;6.40;72.20
25871;DHT22;13689;48.590;7.752;2023-01-16T05:49:50;6.40;72.00
25871;DHT22;13689;48.590;7.752;2023-01-16T05:52:16;6.40;71.80
25871;DHT22;13689;48.590;7.752;2023-01-16T05:54:41;6.50;71.60
25871;DHT22;13689;48.590;7.752;2023-01-16T05:57:07;6.50;71.30
25871;DHT22;13689;48.590;7.752;2023-01-16T05:59:33;6.50;71.30
25871;DHT22;13689;48.590;7.752;2023-01-16T06:01:58;6.50;71.00
25871;DHT22;13689;48.590;7.752;2023-01-16T06:04:24;6.50;70.90
25871;DHT22;13689;48.590;7.752;2023-01-16T06:06:49;6.50;70.60
25871;DHT22;13689;48.590;7.752;2023-01-16T06:09:15;6.50;70.60
25871;DHT22;13689;48.590;7.752;2023-01-16T06:11:41;6.50;70.50
25871;DHT22;13689;48.590;7.752;2023-01-16T06:14:07;6.50;70.30
25871;DHT22;13689;48.590;7.752;2023-01-16T06:16:33;6.50;70.30
25871;DHT22;13689;48.590;7.752;2023-01-16T06:19:00;6.60;70.20
25871;DHT22;13689;48.590;7.752;2023-01-16T06:21:25;6.60;70.00
25871;DHT22;13689;48.590;7.752;2023-01-16T06:23:51;6.60;69.90
25871;DHT22;13689;48.590;7.752;2023-01-16T06:26:17;6.60;69.80
25871;DHT22;13689;48.590;7.752;2023-01-16T06:28:42;6.60;69.70
25871;DHT22;13689;48.590;7.752;2023-01-16T06:31:08;6.60;69.40
25871;DHT22;13689;48.590;7.752;2023-01-16T06:33:34;6.60;69.20
25871;DHT22;13689;48.590;7.752;2023-01-16T06:36:00;6.60;68.80
25871;DHT22;13689;48.590;7.752;2023-01-16T06:38:26;6.70;68.40
25871;DHT22;13689;48.590;7.752;2023-01-16T06:40:51;6.70;68.30
25871;DHT22;13689;48.590;7.752;2023-01-16T06:43:25;6.70;68.20
25871;DHT22;13689;48.590;7.752;2023-01-16T06:45:51;6.70;67.90
25871;DHT22;13689;48.590;7.752;2023-01-16T06:48:17;6.80;67.90
25871;DHT22;13689;48.590;7.752;2023-01-16T06:50:43;6.90;68.10
25871;DHT22;13689;48.590;7.752;2023-01-16T06:53:09;6.90;67.90
25871;DHT22;13689;48.590;7.752;2023-01-16T06:55:35;7.00;67.70
25871;DHT22;13689;48.590;7.752;2023-01-16T06:58:01;7.00;67.40
25871;DHT22;13689;48.590;7.752;2023-01-16T07:00:26;7.00;67.20
25871;DHT22;13689;48.590;7.752;2023-01-16T07:02:56;7.00;67.20
25871;DHT22;13689;48.590;7.752;2023-01-16T07:05:23;7.00;66.80
25871;DHT22;13689;48.590;7.752;2023-01-16T07:07:49;7.00;66.60
25871;DHT22;13689;48.590;7.752;2023-01-16T07:10:16;7.00;66.40
25871;DHT22;13689;48.590;7.752;2023-01-16T07:12:41;7.10;66.30
25871;DHT22;13689;48.590;7.752;2023-01-16T07:15:08;7.10;66.20
25871;DHT22;13689;48.590;7.752;2023-01-16T07:17:53;7.10;66.00
25871;DHT22;13689;48.590;7.752;2023-01-16T07:20:37;7.20;66.00
25871;DHT22;13689;48.590;7.752;2023-01-16T07:23:25;7.20;65.80
25871;DHT22;13689;48.590;7.752;2023-01-16T07:25:52;7.20;65.60
25871;DHT22;13689;48.590;7.752;2023-01-16T07:28:20;7.20;65.50
25871;DHT22;13689;48.590;7.752;2023-01-16T07:30:46;7.20;65.40
25871;DHT22;13689;48.590;7.752;2023-01-16T07:33:13;7.20;65.30
25871;DHT22;13689;48.590;7.752;2023-01-16T07:35:49;7.20;65.20
25871;DHT22;13689;48.590;7.752;2023-01-16T07:38:15;7.20;65.10
25871;DHT22;13689;48.590;7.752;2023-01-16T07:40:40;7.20;64.80
25871;DHT22;13689;48.590;7.752;2023-01-16T07:43:06;7.20;64.80
25871;DHT22;13689;48.590;7.752;2023-01-16T07:45:32;7.20;64.80
25871;DHT22;13689;48.590;7.752;2023-01-16T07:47:58;7.30;64.90
25871;DHT22;13689;48.590;7.752;2023-01-16T07:50:26;7.30;64.80
25871;DHT22;13689;48.590;7.752;2023-01-16T07:52:51;7.30;64.70
25871;DHT22;13689;48.590;7.752;2023-01-16T07:55:17;7.30;64.60
25871;DHT22;13689;48.590;7.752;2023-01-16T07:57:42;7.30;64.40
25871;DHT22;13689;48.590;7.752;2023-01-16T08:00:09;7.40;64.30
25871;DHT22;13689;48.590;7.752;2023-01-16T08:02:36;7.40;64.10
25871;DHT22;13689;48.590;7.752;2023-01-16T08:05:02;7.40;63.90
25871;DHT22;13689;48.590;7.752;2023-01-16T08:07:28;7.40;63.70
25871;DHT22;13689;48.590;7.752;2023-01-16T08:09:54;7.50;63.60
25871;DHT22;13689;48.590;7.752;2023-01-16T08:12:19;7.50;64.30
25871;DHT22;13689;48.590;7.752;2023-01-16T08:14:45;7.50;63.30
25871;DHT22;13689;48.590;7.752;2023-01-16T08:17:11;7.50;63.10
25871;DHT22;13689;48.590;7.752;2023-01-16T08:19:36;7.60;62.90
25871;DHT22;13689;48.590;7.752;2023-01-16T08:22:02;7.60;62.80
25871;DHT22;13689;48.590;7.752;2023-01-16T08:24:28;7.60;62.80
25871;DHT22;13689;48.590;7.752;2023-01-16T08:26:55;7.60;62.60
25871;DHT22;13689;48.590;7.752;2023-01-16T08:29:21;7.60;62.40
25871;DHT22;13689;48.590;7.752;2023-01-16T08:31:49;7.60;62.40
25871;DHT22;13689;48.590;7.752;2023-01-16T08:34:15;7.70;62.40
25871;DHT22;13689;48.590;7.752;2023-01-16T08:36:40;7.60;62.30
25871;DHT22;13689;48.590;7.752;2023-01-16T08:39:08;7.60;62.50
25871;DHT22;13689;48.590;7.752;2023-01-16T08:41:33;7.60;62.60
25871;DHT22;13689;48.590;7.752;2023-01-16T08:44:17;7.70;62.80
25871;DHT22;13689;48.590;7.752;2023-01-16T08:47:04;7.60;63.00
25871;DHT22;13689;48.590;7.752;2023-01-16T08:49:49;7.60;63.30
25871;DHT22;13689;48.590;7.752;2023-01-16T08:52:34;7.60;63.50
25871;DHT22;13689;48.590;7.752;2023-01-16T08:55:02;7.70;63.80
25871;DHT22;13689;48.590;7.752;2023-01-16T08:57:28;7.60;63.90
25871;DHT22;13689;48.590;7.752;2023-01-16T08:59:55;7.70;64.40
25871;DHT22;13689;48.590;7.752;2023-01-16T09:02:21;7.70;64.60
25871;DHT22;13689;48.590;7.752;2023-01-16T09:04:47;7.70;65.00
25871;DHT22;13689;48.590;7.752;2023-01-16T09:07:14;7.70;65.30
25871;DHT22;13689;48.590;7.752;2023-01-16T09:09:40;7.70;65.80
25871;DHT22;13689;48.590;7.752;2023-01-16T09:12:11;7.70;66.00
25871;DHT22;13689;48.590;7.752;2023-01-16T09:14:55;7.70;66.40
25871;DHT22;13689;48.590;7.752;2023-01-16T09:17:22;7.70;66.80
25871;DHT22;13689;48.590;7.752;2023-01-16T09:19:48;7.70;67.20
25871;DHT22;13689;48.590;7.752;2023-01-16T09:22:14;7.80;67.60
25871;DHT22;13689;48.590;7.752;2023-01-16T09:24:39;7.80;67.60
25871;DHT22;13689;48.590;7.752;2023-01-16T09:27:05;7.90;67.80
25871;DHT22;13689;48.590;7.752;2023-01-16T09:29:31;7.90;67.70
25871;DHT22;13689;48.590;7.752;2023-01-16T09:31:58;8.00;67.70
25871;DHT22;13689;48.590;7.752;2023-01-16T09:34:24;8.00;67.80
25871;DHT22;13689;48.590;7.752;2023-01-16T09:36:50;8.00;67.80
25871;DHT22;13689;48.590;7.752;2023-01-16T09:39:16;8.00;67.70
25871;DHT22;13689;48.590;7.752;2023-01-16T09:42:11;8.00;67.80
25871;DHT22;13689;48.590;7.752;2023-01-16T09:45:10;8.00;67.80
25871;DHT22;13689;48.590;7.752;2023-01-16T09:47:37;8.00;67.80
25871;DHT22;13689;48.590;7.752;2023-01-16T09:50:14;8.00;67.80
25871;DHT22;13689;48.590;7.752;2023-01-16T09:52:45;8.00;67.50
25871;DHT22;13689;48.590;7.752;2023-01-16T09:55:41;8.00;67.50
25871;DHT22;13689;48.590;7.752;2023-01-16T09:58:27;8.10;67.40
25871;DHT22;13689;48.590;7.752;2023-01-16T10:01:23;8.20;67.70
25871;DHT22;13689;48.590;7.752;2023-01-16T10:03:46;8.20;67.70
25871;DHT22;13689;48.590;7.752;2023-01-16T10:06:29;8.30;67.80
25871;DHT22;13689;48.590;7.752;2023-01-16T10:09:02;8.40;67.80
25871;DHT22;13689;48.590;7.752;2023-01-16T10:11:48;8.40;67.90
25871;DHT22;13689;48.590;7.752;2023-01-16T10:17:31;8.40;68.20
25871;DHT22;13689;48.590;7.752;2023-01-16T10:25:18;8.40;69.20
25871;DHT22;13689;48.590;7.752;2023-01-16T10:27:50;8.40;69.50
25871;DHT22;13689;48.590;7.752;2023-01-16T10:30:29;8.50;69.80
25871;DHT22;13689;48.590;7.752;2023-01-16T10:35:45;8.50;70.00
25871;DHT22;13689;48.590;7.752;2023-01-16T10:40:52;8.60;70.20
25871;DHT22;13689;48.590;7.752;2023-01-16T10:43:32;8.60;70.20
25871;DHT22;13689;48.590;7.752;2023-01-16T10:46:19;8.60;70.20
25871;DHT22;13689;48.590;7.752;2023-01-16T10:49:06;8.70;70.30
25871;DHT22;13689;48.590;7.752;2023-01-16T10:51:51;8.60;70.40
25871;DHT22;13689;48.590;7.752;2023-01-16T10:54:16;8.60;70.40
25871;DHT22;13689;48.590;7.752;2023-01-16T10:56:42;8.60;70.40
25871;DHT22;13689;48.590;7.752;2023-01-16T10:59:11;8.60;70.40
25871;DHT22;13689;48.590;7.752;2023-01-16T11:01:37;8.60;70.30
25871;DHT22;13689;48.590;7.752;2023-01-16T11:04:06;8.70;70.30
25871;DHT22;13689;48.590;7.752;2023-01-16T11:06:34;8.70;70.40
25871;DHT22;13689;48.590;7.752;2023-01-16T11:09:03;8.70;70.40
25871;DHT22;13689;48.590;7.752;2023-01-16T11:11:30;8.80;70.50
25871;DHT22;13689;48.590;7.752;2023-01-16T11:14:23;8.90;70.20
25871;DHT22;13689;48.590;7.752;2023-01-16T11:20:02;9.00;69.80
25871;DHT22;13689;48.590;7.752;2023-01-16T11:22:28;9.10;69.90
25871;DHT22;13689;48.590;7.752;2023-01-16T11:24:56;9.20;69.80
25871;DHT22;13689;48.590;7.752;2023-01-16T11:27:28;9.20;69.90
25871;DHT22;13689;48.590;7.752;2023-01-16T11:29:56;9.30;69.90
25871;DHT22;13689;48.590;7.752;2023-01-16T11:32:24;9.30;69.90
25871;DHT22;13689;48.590;7.752;2023-01-16T11:34:55;9.30;69.90
25871;DHT22;13689;48.590;7.752;2023-01-16T11:37:22;9.40;69.90
25871;DHT22;13689;48.590;7.752;2023-01-16T11:39:50;9.30;69.90
25871;DHT22;13689;48.590;7.752;2023-01-16T11:42:16;9.30;69.70
25871;DHT22;13689;48.590;7.752;2023-01-16T11:45:13;9.30;69.70
25871;DHT22;13689;48.590;7.752;2023-01-16T11:48:01;9.30;69.70
25871;DHT22;13689;48.590;7.752;2023-01-16T11:50:52;9.40;69.40
25871;DHT22;13689;48.590;7.752;2023-01-16T11:53:18;9.50;69.10
25871;DHT22;13689;48.590;7.752;2023-01-16T11:59:00;9.40;68.50
25871;DHT22;13689;48.590;7.752;2023-01-16T12:04:25;9.30;68.50
25871;DHT22;13689;48.590;7.752;2023-01-16T12:12:01;9.40;67.90
25871;DHT22;13689;48.590;7.752;2023-01-16T12:15:01;9.40;67.70
25871;DHT22;13689;48.590;7.752;2023-01-16T12:25:59;9.80;65.80
25871;DHT22;13689;48.590;7.752;2023-01-16T12:42:27;9.80;64.60
25871;DHT22;13689;48.590;7.752;2023-01-16T12:53:27;9.80;63.90
25871;DHT22;13689;48.590;7.752;2023-01-16T13:01:44;9.70;64.20
25871;DHT22;13689;48.590;7.752;2023-01-16T13:04:24;9.70;64.10
25871;DHT22;13689;48.590;7.752;2023-01-16T13:06:58;9.70;64.10
25871;DHT22;13689;48.590;7.752;2023-01-16T13:09:48;9.70;64.30
25871;DHT22;13689;48.590;7.752;2023-01-16T13:12:23;9.60;64.60
25871;DHT22;13689;48.590;7.752;2023-01-16T13:15:12;9.60;64.80
25871;DHT22;13689;48.590;7.752;2023-01-16T13:17:44;9.60;64.90
25871;DHT22;13689;48.590;7.752;2023-01-16T13:20:13;9.60;65.00
25871;DHT22;13689;48.590;7.752;2023-01-16T13:23:02;9.60;65.20
25871;DHT22;13689;48.590;7.752;2023-01-16T13:25:39;9.70;65.30
25871;DHT22;13689;48.590;7.752;2023-01-16T13:30:55;9.60;65.30
25871;DHT22;13689;48.590;7.752;2023-01-16T13:33:22;9.60;65.40
25871;DHT22;13689;48.590;7.752;2023-01-16T13:38:41;9.60;65.50
25871;DHT22;13689;48.590;7.752;2023-01-16T13:41:20;9.60;65.60
25871;DHT22;13689;48.590;7.752;2023-01-16T13:43:56;9.50;65.70
25871;DHT22;13689;48.590;7.752;2023-01-16T13:46:43;9.30;65.90
25871;DHT22;13689;48.590;7.752;2023-01-16T13:49:20;9.40;66.20
25871;DHT22;13689;48.590;7.752;2023-01-16T13:51:48;9.40;66.30
25871;DHT22;13689;48.590;7.752;2023-01-16T13:54:40;9.40;66.40
25871;DHT22;13689;48.590;7.752;2023-01-16T13:57:19;9.40;66.70
25871;DHT22;13689;48.590;7.752;2023-01-16T13:59:51;9.30;67.00
25871;DHT22;13689;48.590;7.752;2023-01-16T14:10:41;9.10;68.30
25871;DHT22;13689;48.590;7.752;2023-01-16T14:16:00;9.00;68.70
25871;DHT22;13689;48.590;7.752;2023-01-16T14:21:41;9.00;69.40
25871;DHT22;13689;48.590;7.752;2023-01-16T14:24:18;8.90;69.80
25871;DHT22;13689;48.590;7.752;2023-01-16T14:27:00;8.90;70.50
25871;DHT22;13689;48.590;7.752;2023-01-16T14:29:43;8.80;71.40
25871;DHT22;13689;48.590;7.752;2023-01-16T14:34:40;8.70;72.80
25871;DHT22;13689;48.590;7.752;2023-01-16T14:42:35;8.70;73.90
25871;DHT22;13689;48.590;7.752;2023-01-16T14:54:07;8.50;75.60
25871;DHT22;13689;48.590;7.752;2023-01-16T14:59:52;8.40;76.10
25871;DHT22;13689;48.590;7.752;2023-01-16T15:02:37;8.40;76.50
25871;DHT22;13689;48.590;7.752;2023-01-16T15:05:31;8.30;77.10
25871;DHT22;13689;48.590;7.752;2023-01-16T15:08:14;8.30;77.40
25871;DHT22;13689;48.590;7.752;2023-01-16T15:10:41;8.20;78.10
25871;DHT22;13689;48.590;7.752;2023-01-16T15:13:29;8.20;78.70
25871;DHT22;13689;48.590;7.752;2023-01-16T15:16:18;8.10;79.30
25871;DHT22;13689;48.590;7.752;2023-01-16T15:19:13;8.10;79.60
25871;DHT22;13689;48.590;7.752;2023-01-16T15:21:58;8.10;79.90
25871;DHT22;13689;48.590;7.752;2023-01-16T15:24:24;8.10;80.10
25871;DHT22;13689;48.590;7.752;2023-01-16T15:27:02;8.10;80.00
25871;DHT22;13689;48.590;7.752;2023-01-16T15:32:13;8.10;80.30
25871;DHT22;13689;48.590;7.752;2023-01-16T15:35:13;8.00;80.50
25871;DHT22;13689;48.590;7.752;2023-01-16T15:37:50;8.00;80.70
25871;DHT22;13689;48.590;7.752;2023-01-16T15:40:28;8.00;80.80
25871;DHT22;13689;48.590;7.752;2023-01-16T15:42:55;8.00;80.90
25871;DHT22;13689;48.590;7.752;2023-01-16T15:46:28;7.90;81.00
25871;DHT22;13689;48.590;7.752;2023-01-16T15:49:23;7.90;81.10
25871;DHT22;13689;48.590;7.752;2023-01-16T15:51:52;7.90;81.10
25871;DHT22;13689;48.590;7.752;2023-01-16T15:54:18;7.90;81.30
25871;DHT22;13689;48.590;7.752;2023-01-16T15:56:45;7.90;81.40
25871;DHT22;13689;48.590;7.752;2023-01-16T15:59:22;7.90;81.40
25871;DHT22;13689;48.590;7.752;2023-01-16T16:01:48;7.90;81.50
25871;DHT22;13689;48.590;7.752;2023-01-16T16:04:14;7.90;81.50
25871;DHT22;13689;48.590;7.752;2023-01-16T16:06:41;7.80;81.50
25871;DHT22;13689;48.590;7.752;2023-01-16T16:09:18;7.80;81.40
25871;DHT22;13689;48.590;7.752;2023-01-16T16:11:44;7.80;81.60
25871;DHT22;13689;48.590;7.752;2023-01-16T16:14:31;7.80;81.70
25871;DHT22;13689;48.590;7.752;2023-01-16T16:33:26;7.70;80.90
25871;DHT22;13689;48.590;7.752;2023-01-16T16:35:55;7.70;80.80
25871;DHT22;13689;48.590;7.752;2023-01-16T16:38:27;7.70;80.80
25871;DHT22;13689;48.590;7.752;2023-01-16T16:43:55;7.60;80.80
25871;DHT22;13689;48.590;7.752;2023-01-16T16:51:34;7.50;80.90
25871;DHT22;13689;48.590;7.752;2023-01-16T16:54:06;7.50;81.00
25871;DHT22;13689;48.590;7.752;2023-01-16T16:56:36;7.40;81.10
25871;DHT22;13689;48.590;7.752;2023-01-16T16:59:03;7.40;81.50
25871;DHT22;13689;48.590;7.752;2023-01-16T17:01:29;7.30;81.50
25871;DHT22;13689;48.590;7.752;2023-01-16T17:03:57;7.30;81.60
25871;DHT22;13689;48.590;7.752;2023-01-16T17:06:27;7.30;81.90
25871;DHT22;13689;48.590;7.752;2023-01-16T17:08:53;7.20;82.60
25871;DHT22;13689;48.590;7.752;2023-01-16T17:11:20;7.20;81.80
25871;DHT22;13689;48.590;7.752;2023-01-16T17:13:46;7.20;81.80
25871;DHT22;13689;48.590;7.752;2023-01-16T17:16:19;7.20;81.90
25871;DHT22;13689;48.590;7.752;2023-01-16T17:18:46;7.20;82.00
25871;DHT22;13689;48.590;7.752;2023-01-16T17:21:17;7.10;82.00
25871;DHT22;13689;48.590;7.752;2023-01-16T17:23:43;7.20;82.10
25871;DHT22;13689;48.590;7.752;2023-01-16T17:26:09;7.20;82.10
25871;DHT22;13689;48.590;7.752;2023-01-16T17:28:40;7.10;82.00
25871;DHT22;13689;48.590;7.752;2023-01-16T17:31:12;7.10;82.10
25871;DHT22;13689;48.590;7.752;2023-01-16T17:33:38;7.20;82.10
25871;DHT22;13689;48.590;7.752;2023-01-16T17:36:03;7.20;82.10
25871;DHT22;13689;48.590;7.752;2023-01-16T17:38:40;7.20;81.90
25871;DHT22;13689;48.590;7.752;2023-01-16T17:41:22;7.20;81.60
25871;DHT22;13689;48.590;7.752;2023-01-16T17:43:57;7.20;81.40
25871;DHT22;13689;48.590;7.752;2023-01-16T17:46:42;7.30;81.00
25871;DHT22;13689;48.590;7.752;2023-01-16T17:49:07;7.30;80.70
25871;DHT22;13689;48.590;7.752;2023-01-16T17:51:33;7.30;80.30
25871;DHT22;13689;48.590;7.752;2023-01-16T17:53:59;7.40;80.10
25871;DHT22;13689;48.590;7.752;2023-01-16T17:56:25;7.40;79.80
25871;DHT22;13689;48.590;7.752;2023-01-16T17:58:51;7.40;79.50
25871;DHT22;13689;48.590;7.752;2023-01-16T18:01:30;7.50;79.00
25871;DHT22;13689;48.590;7.752;2023-01-16T18:03:57;7.50;78.50
25871;DHT22;13689;48.590;7.752;2023-01-16T18:06:27;7.50;78.40
25871;DHT22;13689;48.590;7.752;2023-01-16T18:08:54;7.50;78.20
25871;DHT22;13689;48.590;7.752;2023-01-16T18:11:21;7.60;78.00
25871;DHT22;13689;48.590;7.752;2023-01-16T18:14:05;7.60;77.80
25871;DHT22;13689;48.590;7.752;2023-01-16T18:16:49;7.60;77.50
25871;DHT22;13689;48.590;7.752;2023-01-16T18:19:33;7.60;77.40
25871;DHT22;13689;48.590;7.752;2023-01-16T18:21:59;7.60;77.30
25871;DHT22;13689;48.590;7.752;2023-01-16T18:24:46;7.50;77.00
25871;DHT22;13689;48.590;7.752;2023-01-16T18:27:14;7.50;77.10
25871;DHT22;13689;48.590;7.752;2023-01-16T18:29:43;7.50;77.10
25871;DHT22;13689;48.590;7.752;2023-01-16T18:32:11;7.50;77.10
25871;DHT22;13689;48.590;7.752;2023-01-16T18:35:04;7.50;77.10
25871;DHT22;13689;48.590;7.752;2023-01-16T18:37:41;7.50;76.90
25871;DHT22;13689;48.590;7.752;2023-01-16T18:40:27;7.50;76.80
25871;DHT22;13689;48.590;7.752;2023-01-16T18:43:11;7.50;76.50
25871;DHT22;13689;48.590;7.752;2023-01-16T18:45:55;7.50;76.30
25871;DHT22;13689;48.590;7.752;2023-01-16T18:48:39;7.50;76.20
25871;DHT22;13689;48.590;7.752;2023-01-16T18:51:23;7.50;76.10
25871;DHT22;13689;48.590;7.752;2023-01-16T18:54:14;7.60;76.10
25871;DHT22;13689;48.590;7.752;2023-01-16T18:56:59;7.50;75.60
25871;DHT22;13689;48.590;7.752;2023-01-16T18:59:43;7.50;75.50
25871;DHT22;13689;48.590;7.752;2023-01-16T19:02:48;7.50;75.20
25871;DHT22;13689;48.590;7.752;2023-01-16T19:05:16;7.50;74.80